createdAt,value
2023-05-04T00:01:31.237Z,12.10
2023-05-04T00:04:33.155Z,12.10
2023-05-04T00:07:35.113Z,12.00
2023-05-04T00:10:36.988Z,11.90
2023-05-04T00:13:38.950Z,11.90
2023-05-04T00:16:40.828Z,11.80
2023-05-04T00:19:44.740Z,11.80
2023-05-04T00:22:51.208Z,11.70
2023-05-04T00:25:53.226Z,11.70
2023-05-04T00:32:24.617Z,11.70
2023-05-04T00:35:26.779Z,11.70
2023-05-04T00:38:28.777Z,11.50
2023-05-04T00:41:30.751Z,11.60
2023-05-04T00:44:34.634Z,11.60
2023-05-04T00:47:38.415Z,11.50
2023-05-04T00:50:40.994Z,11.60
2023-05-04T00:53:47.849Z,11.60
2023-05-04T00:56:49.990Z,11.60
2023-05-04T00:59:53.744Z,11.50
2023-05-04T01:02:55.812Z,11.50
2023-05-04T01:06:16.235Z,11.50
2023-05-04T01:09:30.777Z,11.50
2023-05-04T01:12:45.437Z,11.40
2023-05-04T01:15:48.565Z,11.40
2023-05-04T01:18:51.193Z,11.40
2023-05-04T01:21:53.224Z,11.40
2023-05-04T01:24:55.560Z,11.40
2023-05-04T01:28:06.638Z,11.30
2023-05-04T01:31:14.565Z,11.40
2023-05-04T01:34:17.168Z,11.30
2023-05-04T01:37:19.916Z,11.30
2023-05-04T01:40:21.774Z,11.20
2023-05-04T01:43:24.902Z,11.10
2023-05-04T01:46:26.959Z,11.30
2023-05-04T01:49:29.065Z,11.30
2023-05-04T01:52:31.028Z,11.30
2023-05-04T01:55:35.339Z,11.10
2023-05-04T01:58:37.354Z,11.10
2023-05-04T02:01:39.383Z,11.00
2023-05-04T02:04:41.639Z,11.00
2023-05-04T02:07:43.479Z,11.00
2023-05-04T02:10:45.269Z,10.90
2023-05-04T02:13:48.866Z,10.90
2023-05-04T02:16:51.014Z,11.00
2023-05-04T02:19:52.820Z,11.00
2023-05-04T02:22:54.682Z,11.00
2023-05-04T02:25:57.370Z,11.00
2023-05-04T02:28:59.143Z,11.00
2023-05-04T02:32:02.601Z,11.00
2023-05-04T02:35:04.465Z,10.90
2023-05-04T02:38:06.402Z,11.00
2023-05-04T02:41:08.401Z,11.00
2023-05-04T02:44:11.852Z,11.00
2023-05-04T02:47:21.135Z,10.80
2023-05-04T02:50:23.955Z,10.80
2023-05-04T02:53:25.818Z,10.90
2023-05-04T02:56:28.536Z,10.80
2023-05-04T02:59:30.466Z,10.90
2023-05-04T03:02:32.515Z,10.80
2023-05-04T03:05:34.466Z,10.90
2023-05-04T03:08:38.657Z,10.80
2023-05-04T03:11:41.622Z,10.90
2023-05-04T03:14:45.054Z,10.90
2023-05-04T03:17:46.949Z,10.90
2023-05-04T03:20:53.454Z,10.90
2023-05-04T03:23:55.452Z,10.80
2023-05-04T03:26:57.471Z,10.80
2023-05-04T03:29:59.255Z,10.90
2023-05-04T03:33:01.721Z,10.90
2023-05-04T03:36:03.854Z,10.90
2023-05-04T03:39:06.436Z,10.80
2023-05-04T03:42:08.520Z,10.80
2023-05-04T03:45:48.017Z,10.80
2023-05-04T03:48:50.076Z,10.60
2023-05-04T03:51:53.237Z,10.60
2023-05-04T03:54:55.050Z,10.50
2023-05-04T03:58:01.570Z,10.60
2023-05-04T04:01:03.917Z,10.60
2023-05-04T04:04:06.811Z,10.50
2023-05-04T04:07:08.763Z,10.60
2023-05-04T04:10:12.503Z,10.40
2023-05-04T04:13:14.627Z,10.50
2023-05-04T04:16:16.619Z,10.40
2023-05-04T04:19:18.689Z,10.40
2023-05-04T04:22:20.613Z,10.40
2023-05-04T04:25:23.324Z,10.40
2023-05-04T04:28:27.470Z,10.30
2023-05-04T04:31:30.487Z,10.30
2023-05-04T04:34:32.357Z,10.30
2023-05-04T04:37:34.348Z,10.30
2023-05-04T04:40:36.443Z,10.30
2023-05-04T04:43:38.240Z,10.40
2023-05-04T04:46:41.706Z,10.40
2023-05-04T04:49:44.498Z,10.50
2023-05-04T04:52:47.208Z,10.50
2023-05-04T04:55:49.232Z,10.30
2023-05-04T04:58:52.111Z,10.40
2023-05-04T05:01:53.902Z,10.40
2023-05-04T05:04:55.770Z,10.40
2023-05-04T05:07:57.768Z,10.30
2023-05-04T05:11:01.211Z,10.50
2023-05-04T05:14:02.934Z,10.50
2023-05-04T05:17:05.113Z,10.50
2023-05-04T05:20:12.976Z,10.50
2023-05-04T05:23:16.409Z,10.60
2023-05-04T05:26:18.196Z,10.50
2023-05-04T05:29:23.201Z,10.50
2023-05-04T05:32:25.181Z,10.40
2023-05-04T05:35:27.108Z,10.50
2023-05-04T05:38:29.004Z,10.70
2023-05-04T05:41:30.769Z,10.70
2023-05-04T05:44:37.585Z,10.70
2023-05-04T05:47:40.148Z,10.80
2023-05-04T05:50:42.100Z,10.90
2023-05-04T05:53:45.749Z,10.70
2023-05-04T05:56:47.542Z,10.80
2023-05-04T05:59:49.436Z,10.90
2023-05-04T06:02:51.848Z,10.90
2023-05-04T06:05:54.556Z,11.00
2023-05-04T06:08:56.665Z,11.10
2023-05-04T06:11:58.688Z,11.10
2023-05-04T06:15:00.725Z,11.20
2023-05-04T06:18:03.634Z,11.30
2023-05-04T06:21:05.625Z,11.30
2023-05-04T06:24:07.539Z,11.50
2023-05-04T06:27:09.827Z,11.50
2023-05-04T06:30:13.003Z,11.60
2023-05-04T06:33:15.302Z,11.70
2023-05-04T06:36:17.475Z,11.90
2023-05-04T06:39:19.695Z,12.00
2023-05-04T06:42:21.472Z,12.00
2023-05-04T06:45:23.962Z,12.20
2023-05-04T06:48:27.443Z,12.30
2023-05-04T06:51:29.473Z,12.40
2023-05-04T06:54:31.940Z,12.60
2023-05-04T06:57:34.106Z,12.70
2023-05-04T07:00:37.094Z,12.80
2023-05-04T07:03:38.975Z,12.90
2023-05-04T07:06:40.830Z,13.10
2023-05-04T07:09:43.694Z,13.30
2023-05-04T07:12:45.603Z,13.40
2023-05-04T07:15:47.342Z,13.60
2023-05-04T07:18:50.773Z,13.80
2023-05-04T07:21:52.833Z,13.90
2023-05-04T07:24:59.360Z,14.00
2023-05-04T07:28:01.386Z,14.10
2023-05-04T07:31:03.434Z,14.20
2023-05-04T07:34:05.444Z,14.20
2023-05-04T07:37:08.005Z,14.20
2023-05-04T07:40:11.556Z,14.30
2023-05-04T07:43:14.064Z,14.30
2023-05-04T07:46:16.477Z,14.40
2023-05-04T07:49:19.970Z,14.50
2023-05-04T07:52:21.616Z,14.60
2023-05-04T07:55:24.777Z,14.80
2023-05-04T07:58:26.896Z,14.90
2023-05-04T08:01:28.693Z,15.00
2023-05-04T08:04:30.738Z,15.10
2023-05-04T08:07:32.691Z,15.20
2023-05-04T08:10:37.962Z,15.40
2023-05-04T08:13:42.011Z,15.50
2023-05-04T08:16:43.850Z,15.60
2023-05-04T08:19:45.855Z,15.70
2023-05-04T08:22:47.642Z,15.70
2023-05-04T08:25:49.582Z,15.70
2023-05-04T08:28:51.502Z,15.70
2023-05-04T08:31:56.689Z,15.80
2023-05-04T08:34:58.633Z,15.90
2023-05-04T08:38:02.982Z,16.00
2023-05-04T08:41:06.031Z,16.00
2023-05-04T08:44:12.346Z,16.10
2023-05-04T08:47:14.157Z,16.20
2023-05-04T08:50:16.689Z,16.30
2023-05-04T08:53:21.399Z,16.40
2023-05-04T08:56:24.743Z,16.40
2023-05-04T08:59:28.557Z,16.50
2023-05-04T09:02:32.837Z,16.60
2023-05-04T09:05:35.369Z,16.80
2023-05-04T09:08:37.581Z,17.00
2023-05-04T09:11:39.776Z,17.00
2023-05-04T09:14:41.769Z,17.20
2023-05-04T09:20:58.725Z,17.30
2023-05-04T09:24:00.920Z,17.40
2023-05-04T09:27:12.161Z,17.50
2023-05-04T09:30:14.157Z,17.60
2023-05-04T09:33:21.380Z,17.60
2023-05-04T09:36:25.083Z,17.60
2023-05-04T09:39:27.250Z,17.70
2023-05-04T09:42:30.171Z,17.80
2023-05-04T09:45:47.333Z,17.90
2023-05-04T09:48:53.570Z,18.10
2023-05-04T09:51:57.999Z,18.20
2023-05-04T09:55:00.192Z,18.30
2023-05-04T09:58:05.103Z,18.50
2023-05-04T10:01:07.157Z,18.60
2023-05-04T10:04:11.458Z,18.60
2023-05-04T10:07:13.579Z,18.60
2023-05-04T10:10:17.909Z,18.70
2023-05-04T10:13:19.706Z,18.70
2023-05-04T10:16:55.278Z,18.70
2023-05-04T10:20:00.064Z,18.90
2023-05-04T10:23:01.949Z,19.00
2023-05-04T10:26:31.165Z,19.10
2023-05-04T10:29:34.676Z,19.00
2023-05-04T10:32:40.665Z,19.00
2023-05-04T10:35:53.026Z,19.00
2023-05-04T10:38:54.988Z,19.10
2023-05-04T10:42:09.182Z,19.20
2023-05-04T10:45:13.737Z,19.30
2023-05-04T10:48:16.676Z,19.30
2023-05-04T10:51:19.987Z,19.40
2023-05-04T10:54:21.831Z,19.50
2023-05-04T10:57:23.636Z,19.50
2023-05-04T11:00:42.313Z,19.50
2023-05-04T11:03:44.456Z,19.60
2023-05-04T11:06:57.446Z,19.60
2023-05-04T11:09:59.952Z,19.60
2023-05-04T11:13:05.899Z,19.80
2023-05-04T11:16:08.204Z,20.00
2023-05-04T11:19:13.128Z,20.10
2023-05-04T11:22:15.484Z,20.10
2023-05-04T11:25:17.905Z,20.00
2023-05-04T11:28:31.304Z,20.00
2023-05-04T11:31:33.207Z,20.20
2023-05-04T11:34:35.060Z,20.30
2023-05-04T11:37:42.142Z,20.40
2023-05-04T11:40:48.112Z,20.50
2023-05-04T11:43:51.100Z,20.60
2023-05-04T11:47:02.243Z,20.70
2023-05-04T11:50:08.781Z,20.90
2023-05-04T11:53:12.314Z,20.90
2023-05-04T11:56:20.392Z,21.10
2023-05-04T11:59:22.204Z,21.00
2023-05-04T12:02:26.583Z,21.00
2023-05-04T12:05:28.668Z,21.00
2023-05-04T12:08:35.908Z,21.00
2023-05-04T12:11:38.496Z,21.00
2023-05-04T12:14:53.450Z,20.90
2023-05-04T12:17:55.497Z,21.00
2023-05-04T12:21:07.796Z,21.30
2023-05-04T12:24:10.097Z,21.50
2023-05-04T12:27:16.217Z,21.70
2023-05-04T12:30:18.054Z,21.90
2023-05-04T12:33:26.314Z,22.00
2023-05-04T12:36:28.042Z,22.00
2023-05-04T12:39:35.288Z,22.00
2023-05-04T12:42:37.083Z,22.10
2023-05-04T12:45:39.734Z,22.20
2023-05-04T12:48:41.516Z,22.20
2023-05-04T12:51:50.453Z,22.30
2023-05-04T12:54:52.209Z,22.30
2023-05-04T12:57:56.395Z,22.40
2023-05-04T13:00:58.981Z,22.40
2023-05-04T13:04:02.800Z,22.40
2023-05-04T13:07:04.611Z,22.40
2023-05-04T13:10:06.832Z,22.50
2023-05-04T13:13:09.090Z,22.60
2023-05-04T13:16:11.594Z,22.70
2023-05-04T13:19:13.499Z,22.70
2023-05-04T13:22:16.194Z,22.70
2023-05-04T13:25:18.124Z,22.80
2023-05-04T13:28:19.939Z,22.90
2023-05-04T13:31:21.804Z,22.90
2023-05-04T13:34:25.314Z,22.90
2023-05-04T13:37:27.814Z,23.00
2023-05-04T13:40:30.348Z,23.00
2023-05-04T13:43:32.415Z,23.00
2023-05-04T13:46:42.697Z,23.10
2023-05-04T13:49:54.267Z,23.10
2023-05-04T13:52:57.024Z,23.00
2023-05-04T13:55:58.883Z,23.00
2023-05-04T13:59:01.595Z,23.10
2023-05-04T14:02:03.632Z,23.10
2023-05-04T14:05:05.968Z,23.10
2023-05-04T14:08:08.147Z,23.10
2023-05-04T14:11:10.168Z,23.20
2023-05-04T14:14:12.123Z,23.20
2023-05-04T14:17:13.979Z,23.20
2023-05-04T14:20:16.185Z,23.30
2023-05-04T14:23:19.567Z,23.20
2023-05-04T14:26:21.248Z,23.20
2023-05-04T14:29:23.932Z,23.20
2023-05-04T14:32:25.823Z,23.20
2023-05-04T14:35:33.794Z,23.20
2023-05-04T14:38:36.130Z,23.20
2023-05-04T14:41:38.508Z,23.20
2023-05-04T14:44:54.958Z,23.30
2023-05-04T14:47:57.696Z,23.30
2023-05-04T14:50:59.510Z,23.30
2023-05-04T14:54:02.127Z,23.30
2023-05-04T14:57:04.532Z,23.30
2023-05-04T15:00:08.780Z,23.30
2023-05-04T15:03:12.402Z,23.40
2023-05-04T15:06:19.013Z,23.40
2023-05-04T15:09:20.926Z,23.30
2023-05-04T15:12:23.695Z,23.30
2023-05-04T15:15:25.977Z,23.20
2023-05-04T15:18:28.102Z,23.20
2023-05-04T15:21:29.835Z,23.30
2023-05-04T15:24:31.933Z,23.20
2023-05-04T15:27:33.697Z,23.10
2023-05-04T15:30:35.646Z,23.20
2023-05-04T15:33:37.364Z,23.10
2023-05-04T15:36:39.997Z,23.10
2023-05-04T15:39:41.917Z,23.00
2023-05-04T15:42:43.729Z,23.00
2023-05-04T15:45:46.251Z,23.00
2023-05-04T15:48:49.126Z,23.00
2023-05-04T15:51:53.419Z,23.00
2023-05-04T15:54:57.116Z,23.00
2023-05-04T15:57:59.050Z,23.00
2023-05-04T16:04:25.663Z,23.10
2023-05-04T16:07:27.734Z,23.10
2023-05-04T16:10:29.749Z,23.20
2023-05-04T16:10:59.855Z,23.00
2023-05-04T16:13:32.284Z,23.30
2023-05-04T16:16:34.284Z,23.30
2023-05-04T16:19:36.291Z,23.40
2023-05-04T16:22:38.101Z,23.40
2023-05-04T16:25:40.138Z,23.30
2023-05-04T16:28:41.999Z,23.30
2023-05-04T16:31:47.415Z,23.20
2023-05-04T16:34:49.149Z,23.20
2023-05-04T16:37:52.489Z,23.20
2023-05-04T16:40:54.349Z,23.10
2023-05-04T16:43:57.842Z,23.10
2023-05-04T16:47:02.345Z,23.10
2023-05-04T16:50:06.370Z,23.00
2023-05-04T16:53:08.513Z,22.90
2023-05-04T16:56:19.121Z,22.90
2023-05-04T16:59:21.216Z,22.90
2023-05-04T17:02:23.056Z,22.80
2023-05-04T17:05:24.867Z,22.70
2023-05-04T17:08:27.552Z,22.60
2023-05-04T17:11:31.012Z,22.60
2023-05-04T17:14:34.010Z,22.60
2023-05-04T17:17:35.813Z,22.50
2023-05-04T17:20:37.826Z,22.50
2023-05-04T17:23:39.540Z,22.50
2023-05-04T17:26:42.077Z,22.50
2023-05-04T17:29:44.257Z,22.40
2023-05-04T17:32:46.150Z,22.40
2023-05-04T17:35:49.403Z,22.30
2023-05-04T17:38:53.220Z,22.20
2023-05-04T17:41:55.056Z,22.20
2023-05-04T17:44:56.859Z,22.20
2023-05-04T17:48:01.226Z,22.20
2023-05-04T17:51:03.426Z,22.20
2023-05-04T17:54:08.464Z,22.20
2023-05-04T17:57:11.114Z,22.20
2023-05-04T18:00:13.724Z,22.20
2023-05-04T18:03:16.136Z,22.20
2023-05-04T18:06:17.935Z,22.20
2023-05-04T18:09:19.823Z,22.10
2023-05-04T18:12:22.508Z,22.10
2023-05-04T18:15:24.300Z,22.10
2023-05-04T18:18:26.077Z,22.10
2023-05-04T18:21:28.330Z,22.00
2023-05-04T18:24:31.950Z,22.00
2023-05-04T18:27:37.893Z,22.00
2023-05-04T18:30:39.884Z,21.90
2023-05-04T18:33:43.372Z,21.90
2023-05-04T18:36:46.517Z,21.90
2023-05-04T18:39:49.905Z,21.80
2023-05-04T18:42:51.884Z,21.70
2023-05-04T18:45:54.169Z,21.70
2023-05-04T18:48:57.628Z,21.60
2023-05-04T18:52:01.624Z,21.60
2023-05-04T18:55:03.584Z,21.50
2023-05-04T18:58:05.597Z,21.50
2023-05-04T19:01:07.588Z,21.50
2023-05-04T19:04:12.694Z,21.40
2023-05-04T19:07:15.719Z,21.40
2023-05-04T19:10:17.928Z,21.30
2023-05-04T19:13:20.865Z,21.20
2023-05-04T19:16:24.210Z,21.20
2023-05-04T19:19:26.451Z,21.10
2023-05-04T19:22:29.045Z,21.10
2023-05-04T19:25:34.962Z,21.00
2023-05-04T19:28:37.601Z,20.90
2023-05-04T19:31:39.837Z,20.80
2023-05-04T19:34:44.033Z,20.80
2023-05-04T19:37:46.392Z,20.70
2023-05-04T19:40:49.026Z,20.70
2023-05-04T19:43:51.150Z,20.50
2023-05-04T19:46:56.345Z,20.50
2023-05-04T19:49:58.216Z,20.50
2023-05-04T19:53:00.369Z,20.40
2023-05-04T19:56:02.303Z,20.30
2023-05-04T19:59:04.985Z,20.30
2023-05-04T20:02:07.065Z,20.20
2023-05-04T20:05:09.265Z,20.10
2023-05-04T20:08:11.613Z,20.00
2023-05-04T20:11:13.957Z,19.90
2023-05-04T20:14:15.818Z,19.80
2023-05-04T20:17:17.759Z,19.80
2023-05-04T20:20:21.533Z,19.70
2023-05-04T20:23:23.664Z,19.70
2023-05-04T20:26:25.406Z,19.70
2023-05-04T20:29:27.525Z,19.70
2023-05-04T20:32:31.143Z,19.70
2023-05-04T20:35:33.152Z,19.70
2023-05-04T20:38:35.147Z,19.70
2023-05-04T20:41:42.755Z,19.60
2023-05-04T20:44:45.232Z,19.60
2023-05-04T20:47:47.224Z,19.70
2023-05-04T20:50:50.343Z,19.70
2023-05-04T20:53:55.366Z,19.70
2023-05-04T20:56:57.205Z,19.70
2023-05-04T20:59:59.121Z,19.70
2023-05-04T21:03:01.078Z,19.70
2023-05-04T21:06:04.711Z,19.70
2023-05-04T21:09:07.208Z,19.70
2023-05-04T21:12:10.321Z,19.80
2023-05-04T21:15:12.877Z,19.80
2023-05-04T21:18:15.027Z,19.80
2023-05-04T21:21:16.876Z,19.80
2023-05-04T21:24:18.765Z,19.90
2023-05-04T21:27:21.163Z,19.90
2023-05-04T21:30:25.353Z,19.90
2023-05-04T21:33:27.350Z,19.90
2023-05-04T21:36:29.409Z,19.90
2023-05-04T21:39:31.717Z,19.80
2023-05-04T21:42:33.736Z,19.90
2023-05-04T21:45:42.296Z,19.90
2023-05-04T21:48:48.806Z,19.80
2023-05-04T21:51:50.580Z,19.80
2023-05-04T21:54:53.274Z,19.80
2023-05-04T21:57:55.010Z,19.80
2023-05-04T22:00:57.328Z,19.70
2023-05-04T22:03:59.461Z,19.60
2023-05-04T22:07:01.413Z,19.50
2023-05-04T22:10:04.502Z,19.40
2023-05-04T22:13:07.273Z,19.40
2023-05-04T22:16:09.364Z,19.40
2023-05-04T22:19:11.801Z,19.30
2023-05-04T22:22:13.692Z,19.20
2023-05-04T22:25:15.510Z,19.20
2023-05-04T22:28:17.653Z,19.10
2023-05-04T22:31:20.286Z,19.10
2023-05-04T22:34:22.128Z,19.00
2023-05-04T22:37:24.092Z,19.00
2023-05-04T22:40:26.153Z,19.00
2023-05-04T22:43:28.157Z,18.90
2023-05-04T22:46:30.703Z,18.90
2023-05-04T22:49:32.756Z,18.90
2023-05-04T22:52:34.612Z,18.80
2023-05-04T22:55:36.537Z,18.80
2023-05-04T22:58:38.452Z,18.70
2023-05-04T23:01:43.492Z,18.70
2023-05-04T23:04:45.593Z,18.60
2023-05-04T23:07:47.698Z,18.60
2023-05-04T23:10:49.474Z,18.60
2023-05-04T23:13:53.017Z,18.60
2023-05-04T23:16:54.974Z,18.50
2023-05-04T23:19:57.724Z,18.50
2023-05-04T23:22:59.681Z,18.50
2023-05-04T23:26:01.523Z,18.40
2023-05-04T23:29:03.505Z,18.50
2023-05-04T23:32:05.960Z,18.40
2023-05-04T23:35:08.303Z,18.40
2023-05-04T23:38:11.656Z,18.30
2023-05-04T23:41:13.497Z,18.20
2023-05-04T23:44:16.600Z,18.10
2023-05-04T23:47:18.520Z,18.10
2023-05-04T23:50:21.034Z,18.00
2023-05-04T23:53:23.054Z,18.00
2023-05-04T23:56:25.830Z,18.00
2023-05-04T23:59:27.800Z,18.00
